createdAt,value
2019-06-25T05:22:43.516Z,165
2019-06-25T05:23:42.044Z,170
2019-06-25T05:24:40.804Z,170
2019-06-25T05:25:39.414Z,175
2019-06-25T05:26:38.010Z,165
2019-06-25T05:27:36.873Z,205
2019-06-25T05:28:35.422Z,240
2019-06-25T05:29:34.028Z,175
2019-06-25T05:30:32.565Z,140
2019-06-25T05:31:31.122Z,140
2019-06-25T05:32:29.666Z,135
2019-06-25T05:33:28.163Z,135
2019-06-25T05:34:26.722Z,140
2019-06-25T05:35:25.266Z,140
2019-06-25T05:36:23.794Z,140
2019-06-25T05:37:22.334Z,135
2019-06-25T05:38:21.067Z,135
2019-06-25T05:39:19.727Z,135
2019-06-25T05:40:18.238Z,130
2019-06-25T05:41:16.943Z,130
2019-06-25T05:42:15.659Z,130
2019-06-25T05:43:14.214Z,140
2019-06-25T05:44:12.802Z,135
2019-06-25T05:45:11.327Z,140
2019-06-25T05:46:09.916Z,150
2019-06-25T05:47:08.486Z,155
2019-06-25T05:48:07.061Z,165
2019-06-25T05:49:05.612Z,180
2019-06-25T05:50:04.163Z,185
2019-06-25T05:51:02.695Z,190
2019-06-25T05:52:01.327Z,195
2019-06-25T05:53:02.568Z,200
2019-06-25T05:53:58.767Z,200
2019-06-25T05:54:57.379Z,195
2019-06-25T05:55:55.932Z,205
2019-06-25T05:56:54.526Z,235
2019-06-25T05:57:53.638Z,270
2019-06-25T05:58:52.210Z,280
2019-06-25T05:59:50.770Z,290
2019-06-25T06:00:49.546Z,305
2019-06-25T06:01:48.130Z,315
2019-06-25T06:02:46.671Z,320
2019-06-25T06:03:45.246Z,300
2019-06-25T06:04:43.776Z,300
2019-06-25T06:07:23.844Z,265
2019-06-25T06:08:22.450Z,260
2019-06-25T06:09:21.011Z,260
2019-06-25T06:10:19.672Z,275
2019-06-25T06:11:18.257Z,265
2019-06-25T06:12:16.961Z,265
2019-06-25T06:13:15.594Z,270
2019-06-25T06:14:14.148Z,265
2019-06-25T06:15:12.715Z,275
2019-06-25T06:16:11.341Z,275
2019-06-25T06:17:12.633Z,285
2019-06-25T06:18:08.592Z,300
2019-06-25T06:19:07.268Z,305
2019-06-25T06:20:05.888Z,295
2019-06-25T06:21:04.435Z,290
2019-06-25T06:22:02.995Z,265
2019-06-25T06:23:01.654Z,270
2019-06-25T06:24:00.210Z,255
2019-06-25T06:24:58.764Z,255
2019-06-25T06:25:57.522Z,265
2019-06-25T06:26:56.108Z,265
2019-06-25T06:27:54.776Z,255
2019-06-25T06:28:53.464Z,245
2019-06-25T06:29:52.017Z,235
2019-06-25T06:30:50.666Z,230
2019-06-25T06:31:49.436Z,230
2019-06-25T06:32:48.082Z,230
2019-06-25T06:33:49.962Z,230
2019-06-25T06:34:45.073Z,230
2019-06-25T06:35:43.635Z,255
2019-06-25T06:36:42.214Z,265
2019-06-25T06:39:25.510Z,285
2019-06-25T06:40:24.261Z,290
2019-06-25T06:41:22.898Z,290
2019-06-25T06:42:21.481Z,290
2019-06-25T06:43:20.066Z,290
2019-06-25T06:44:18.622Z,285
2019-06-25T06:45:17.274Z,275
2019-06-25T06:46:15.821Z,265
2019-06-25T06:47:14.384Z,210
2019-06-25T06:48:13.017Z,205
2019-06-25T06:49:11.626Z,240
2019-06-25T06:50:10.166Z,255
2019-06-25T06:51:08.895Z,250
2019-06-25T06:52:07.562Z,230
2019-06-25T06:53:06.089Z,205
2019-06-25T06:54:04.668Z,215
2019-06-25T06:55:03.205Z,230
2019-06-25T06:56:01.755Z,235
2019-06-25T06:57:00.302Z,230
2019-06-25T06:57:58.888Z,240
2019-06-25T06:58:57.483Z,240
2019-06-25T06:59:56.073Z,245
2019-06-25T07:00:54.611Z,245
2019-06-25T07:01:53.431Z,245
2019-06-25T07:02:52.037Z,255
2019-06-25T07:03:53.159Z,260
2019-06-25T07:04:49.377Z,255
2019-06-25T07:05:48.007Z,250
2019-06-25T07:06:46.502Z,240
2019-06-25T07:07:45.058Z,245
2019-06-25T07:08:43.628Z,230
2019-06-25T07:09:42.246Z,240
2019-06-25T07:10:40.993Z,235
2019-06-25T07:11:39.554Z,230
2019-06-25T07:12:38.090Z,225
2019-06-25T07:13:36.727Z,195
2019-06-25T07:14:35.482Z,195
2019-06-25T07:15:34.017Z,220
2019-06-25T07:16:32.563Z,225
2019-06-25T07:17:31.138Z,240
2019-06-25T07:18:29.679Z,230
2019-06-25T07:19:28.211Z,240
2019-06-25T07:20:33.262Z,255
2019-06-25T07:21:25.310Z,250
2019-06-25T07:22:23.850Z,250
2019-06-25T07:23:22.529Z,250
2019-06-25T07:24:21.130Z,250
2019-06-25T07:25:19.769Z,245
2019-06-25T07:26:18.410Z,245
2019-06-25T07:27:17.172Z,240
2019-06-25T07:28:15.682Z,235
2019-06-25T07:29:14.249Z,220
2019-06-25T07:30:12.811Z,220
2019-06-25T07:31:11.394Z,225
2019-06-25T07:32:09.990Z,235
2019-06-25T07:33:08.675Z,230
2019-06-25T07:34:09.556Z,230
2019-06-25T07:35:06.032Z,230
2019-06-25T07:37:41.072Z,220
2019-06-25T07:38:39.622Z,220
2019-06-25T07:41:20.022Z,220
2019-06-25T07:42:18.788Z,215
2019-06-25T07:43:17.431Z,215
2019-06-25T07:44:16.031Z,215
2019-06-25T07:45:14.570Z,215
2019-06-25T07:46:13.164Z,215
2019-06-25T07:47:11.805Z,210
2019-06-25T07:48:10.432Z,210
2019-06-25T07:49:08.982Z,210
2019-06-25T07:50:07.557Z,205
2019-06-25T07:51:06.095Z,205
2019-06-25T07:52:04.820Z,205
2019-06-25T07:53:03.428Z,200
2019-06-25T07:54:01.993Z,200
2019-06-25T07:55:00.579Z,200
2019-06-25T07:55:59.237Z,195
2019-06-25T07:56:57.817Z,195
2019-06-25T07:57:56.421Z,195
2019-06-25T07:58:55.171Z,190
2019-06-25T07:59:53.736Z,190
2019-06-25T08:00:52.291Z,185
2019-06-25T08:01:50.824Z,185
2019-06-25T08:02:49.365Z,190
2019-06-25T08:03:47.922Z,185
2019-06-25T08:04:46.438Z,185
2019-06-25T08:05:44.989Z,180
2019-06-25T08:06:43.781Z,180
2019-06-25T08:09:23.991Z,180
2019-06-25T08:10:22.523Z,175
2019-06-25T08:11:21.234Z,175
2019-06-25T08:12:19.762Z,175
2019-06-25T08:13:18.318Z,180
2019-06-25T08:14:16.870Z,175
2019-06-25T08:15:15.516Z,175
2019-06-25T08:16:14.044Z,175
2019-06-25T08:37:32.966Z,135
2019-06-25T08:38:31.576Z,135
2019-06-25T08:39:30.117Z,135
2019-06-25T08:40:28.772Z,135
2019-06-25T08:41:27.604Z,135
2019-06-25T08:42:26.165Z,130
2019-06-25T08:43:24.750Z,135
2019-06-25T08:44:23.417Z,130
2019-06-25T08:45:21.988Z,130
2019-06-25T08:46:20.613Z,130
2019-06-25T08:47:19.180Z,130
2019-06-25T08:48:17.858Z,130
2019-06-25T08:49:16.473Z,130
2019-06-25T08:50:14.942Z,130
2019-06-25T08:51:13.777Z,130
2019-06-25T08:52:12.425Z,125
2019-06-25T08:53:10.887Z,125
2019-06-25T08:54:09.479Z,125
2019-06-25T08:55:08.140Z,125
2019-06-25T08:56:06.661Z,125
2019-06-25T08:57:05.572Z,125
2019-06-25T08:58:04.252Z,125
2019-06-25T08:59:02.682Z,125
2019-06-25T09:00:01.439Z,125
2019-06-25T09:01:00.052Z,125
2019-06-25T09:01:58.657Z,125
2019-06-25T09:02:57.311Z,120
2019-06-25T09:03:55.983Z,120
2019-06-25T09:04:58.576Z,120
2019-06-25T09:05:53.173Z,120
2019-06-25T09:06:51.769Z,120
2019-06-25T09:07:50.326Z,120
2019-06-25T09:08:49.003Z,120
2019-06-25T09:09:47.552Z,120
2019-06-25T09:10:49.178Z,120
2019-06-25T09:11:44.611Z,120
2019-06-25T09:12:43.197Z,120
2019-06-25T09:13:41.802Z,120
2019-06-25T09:14:40.332Z,120
2019-06-25T09:15:38.987Z,120
2019-06-25T09:16:37.600Z,115
2019-06-25T09:17:36.136Z,120
2019-06-25T09:18:34.876Z,120
2019-06-25T09:19:46.190Z,120
2019-06-25T09:20:32.277Z,120
2019-06-25T09:21:30.819Z,120
2019-06-25T09:22:29.369Z,120
2019-06-25T09:23:27.917Z,120
2019-06-25T09:24:26.413Z,120
2019-06-25T09:25:24.943Z,120
2019-06-25T09:26:23.495Z,120
2019-06-25T09:27:22.075Z,120
2019-06-25T09:28:20.729Z,120
2019-06-25T09:29:19.488Z,120
2019-06-25T09:30:18.098Z,115
2019-06-25T09:31:16.667Z,120
2019-06-25T09:32:15.367Z,115
2019-06-25T09:35:22.667Z,115
2019-06-25T09:36:21.319Z,115
2019-06-25T09:37:19.820Z,115
2019-06-25T09:38:18.402Z,115
2019-06-25T09:39:17.148Z,115
2019-06-25T09:40:15.874Z,115
2019-06-25T09:42:55.869Z,115
2019-06-25T09:44:00.429Z,115
2019-06-25T09:44:56.859Z,115
2019-06-25T09:45:55.685Z,115
2019-06-25T09:46:54.297Z,115
2019-06-25T09:56:35.362Z,115
2019-06-25T10:02:31.415Z,115
2019-06-25T10:35:06.212Z,110
2019-06-25T10:36:04.843Z,110
2019-06-25T10:37:03.529Z,110
2019-06-25T10:38:02.432Z,110
2019-06-25T10:39:00.556Z,110
2019-06-25T10:39:59.207Z,110
2019-06-25T10:40:57.939Z,110
2019-06-25T10:41:56.471Z,110
2019-06-25T10:42:55.128Z,110
2019-06-25T10:43:53.681Z,110
2019-06-25T10:44:52.226Z,110
2019-06-25T10:45:50.769Z,110
2019-06-25T10:46:49.296Z,110
2019-06-25T10:47:48.004Z,110
2019-06-25T10:48:47.125Z,110
2019-06-25T10:49:45.767Z,110
2019-06-25T10:50:44.357Z,110
2019-06-25T10:51:42.894Z,115
2019-06-25T10:52:41.582Z,110
2019-06-25T10:53:40.135Z,110
2019-06-25T10:54:38.686Z,110
2019-06-25T10:55:37.366Z,110
2019-06-25T10:56:35.873Z,115
2019-06-25T10:57:34.440Z,110
2019-06-25T10:58:33.173Z,115
2019-06-25T10:59:31.800Z,110
2019-06-25T11:00:30.379Z,110
2019-06-25T11:01:28.912Z,110
2019-06-25T11:02:29.149Z,110
2019-06-25T11:03:25.971Z,110
2019-06-25T11:04:24.520Z,110
2019-06-25T11:05:23.058Z,110
2019-06-25T11:06:21.709Z,110
2019-06-25T11:07:20.225Z,110
2019-06-25T11:08:18.895Z,110
2019-06-25T11:09:17.684Z,110
2019-06-25T11:10:16.264Z,110
2019-06-25T11:11:14.998Z,110
2019-06-25T11:12:14.158Z,110
2019-06-25T11:13:12.214Z,110
2019-06-25T11:14:10.708Z,115
2019-06-25T11:15:09.232Z,115
2019-06-25T11:16:07.852Z,115
2019-06-25T11:17:06.395Z,115
2019-06-25T11:18:05.052Z,115
2019-06-25T11:19:05.673Z,115
2019-06-25T11:20:04.209Z,115
2019-06-25T11:21:02.800Z,115
2019-06-25T11:22:01.472Z,115
2019-06-25T11:23:00.064Z,115
2019-06-25T11:23:59.351Z,115
2019-06-25T11:24:57.911Z,115
2019-06-25T11:26:16.937Z,110
2019-06-25T11:26:54.996Z,110
2019-06-25T11:27:53.800Z,110
2019-06-25T11:28:52.328Z,115
2019-06-25T11:29:50.873Z,110
2019-06-25T11:30:49.454Z,110
2019-06-25T11:31:47.981Z,110
2019-06-25T11:32:46.511Z,110
2019-06-25T11:33:45.012Z,110
2019-06-25T11:34:43.567Z,110
2019-06-25T11:35:42.179Z,110
2019-06-25T11:36:40.798Z,110
2019-06-25T11:37:39.628Z,105
2019-06-25T11:38:38.145Z,105
2019-06-25T11:39:36.740Z,105
2019-06-25T11:40:35.459Z,105
2019-06-25T11:41:34.033Z,105
2019-06-25T11:42:32.572Z,105
2019-06-25T11:43:43.554Z,105
2019-06-25T11:44:29.657Z,105
2019-06-25T11:45:28.163Z,105
2019-06-25T11:48:08.554Z,105
2019-06-25T11:49:06.949Z,105
2019-06-25T11:50:05.653Z,105
2019-06-25T11:51:04.336Z,105
2019-06-25T11:52:02.971Z,105
2019-06-25T11:53:01.598Z,105
2019-06-25T11:54:00.204Z,105
2019-06-25T11:54:58.846Z,105
2019-06-25T11:55:57.299Z,105
2019-06-25T11:56:55.824Z,105
2019-06-25T11:57:54.390Z,110
2019-06-25T11:58:52.926Z,110
2019-06-25T11:59:51.501Z,100
2019-06-25T12:00:50.086Z,100
2019-06-25T12:01:48.662Z,100
2019-06-25T12:02:48.527Z,100
2019-06-25T12:03:45.987Z,100
2019-06-25T12:04:44.576Z,100
2019-06-25T12:05:43.211Z,100
2019-06-25T12:06:53.077Z,100
2019-06-25T12:07:40.401Z,100
2019-06-25T12:08:38.960Z,100
2019-06-25T12:09:37.482Z,100
2019-06-25T12:10:36.024Z,100
2019-06-25T12:11:35.452Z,100
2019-06-25T12:12:34.101Z,100
2019-06-25T12:13:32.710Z,100
2019-06-25T12:14:31.308Z,100
2019-06-25T12:15:29.966Z,100
2019-06-25T12:16:29.333Z,100
2019-06-25T12:17:28.081Z,100
2019-06-25T12:20:02.056Z,100
2019-06-25T12:21:00.683Z,100
2019-06-25T12:21:59.292Z,105
2019-06-25T12:22:57.944Z,105
2019-06-25T12:23:56.492Z,105
2019-06-25T12:24:55.231Z,100
2019-06-25T12:25:53.784Z,100
2019-06-25T12:26:52.381Z,100
2019-06-25T12:27:51.021Z,100
2019-06-25T12:28:49.714Z,105
2019-06-25T12:29:48.255Z,105
2019-06-25T12:30:46.920Z,105
2019-06-25T12:31:53.651Z,105
2019-06-25T12:32:48.760Z,105
2019-06-25T12:33:47.430Z,105
2019-06-25T12:34:46.043Z,100
2019-06-25T12:35:44.601Z,100
2019-06-25T12:41:37.966Z,100
2019-06-25T12:51:35.680Z,105
2019-06-25T13:03:09.446Z,105
2019-06-25T13:04:08.081Z,105
2019-06-25T13:05:06.681Z,110
2019-06-25T13:06:05.342Z,110
2019-06-25T13:07:03.932Z,110
2019-06-25T13:08:02.581Z,110
2019-06-25T13:11:15.907Z,110
2019-06-25T13:13:55.927Z,110
2019-06-25T13:14:54.468Z,110
2019-06-25T13:15:53.088Z,110
2019-06-25T13:17:07.327Z,110
2019-06-25T13:18:06.028Z,110
2019-06-25T13:19:04.681Z,110
2019-06-25T13:20:03.360Z,110
2019-06-25T13:21:01.990Z,110
2019-06-25T13:25:01.561Z,115
2019-06-25T13:26:00.192Z,115
2019-06-25T13:27:02.144Z,115
2019-06-25T13:28:00.646Z,115
2019-06-25T13:28:59.557Z,115
2019-06-25T13:29:58.190Z,115
2019-06-25T13:30:56.738Z,120
2019-06-25T13:31:55.281Z,115
2019-06-25T13:32:53.890Z,115
2019-06-25T13:33:52.524Z,115
2019-06-25T13:34:51.030Z,120
2019-06-25T13:35:49.579Z,120
2019-06-25T13:36:48.112Z,120
2019-06-25T13:37:49.491Z,115
2019-06-25T13:38:45.334Z,115
2019-06-25T13:39:43.930Z,115
2019-06-25T13:42:41.047Z,115
2019-06-25T13:43:39.611Z,115
2019-06-25T13:44:39.783Z,110
2019-06-25T13:45:36.732Z,110
2019-06-25T13:46:35.356Z,105
2019-06-25T13:47:33.907Z,105
2019-06-25T13:48:32.445Z,105
2019-06-25T13:49:31.010Z,100
2019-06-25T13:50:29.911Z,100
2019-06-25T13:51:28.457Z,100
2019-06-25T13:52:27.237Z,100
2019-06-25T13:53:25.863Z,100
2019-06-25T13:54:24.500Z,100
2019-06-25T13:57:04.875Z,100
2019-06-25T13:58:03.641Z,100
2019-06-25T13:59:02.235Z,100
2019-06-25T14:00:00.741Z,100
2019-06-25T14:00:59.302Z,100
2019-06-25T14:01:57.918Z,100
2019-06-25T14:02:59.965Z,100
2019-06-25T14:03:55.061Z,100
2019-06-25T14:04:53.755Z,95
2019-06-25T14:05:52.312Z,95
2019-06-25T14:06:51.033Z,95
2019-06-25T14:07:58.807Z,95
2019-06-25T14:08:48.372Z,95
2019-06-25T14:09:46.912Z,95
2019-06-25T14:10:45.494Z,90
2019-06-25T14:11:44.076Z,90
2019-06-25T14:12:42.637Z,90
2019-06-25T14:13:41.309Z,90
2019-06-25T14:16:04.282Z,90
2019-06-25T14:17:02.787Z,90
2019-06-25T14:18:01.373Z,90
2019-06-25T14:19:00.037Z,90
2019-06-25T14:19:58.594Z,90
2019-06-25T14:20:57.144Z,90
2019-06-25T14:21:55.754Z,90
2019-06-25T14:22:54.312Z,90
2019-06-25T14:25:34.727Z,90
2019-06-25T14:28:19.016Z,90
2019-06-25T14:29:17.860Z,90
2019-06-25T14:30:16.411Z,90
2019-06-25T14:31:14.915Z,90
2019-06-25T14:32:13.693Z,90
2019-06-25T14:33:12.290Z,85
2019-06-25T14:34:10.859Z,85
2019-06-25T14:35:09.417Z,85
2019-06-25T14:36:07.990Z,85
2019-06-25T14:56:33.969Z,85
2019-06-25T14:57:32.519Z,85
2019-06-25T14:58:31.048Z,85
2019-06-25T14:59:29.684Z,85
2019-06-25T15:00:28.225Z,85
2019-06-25T15:01:26.779Z,85
2019-06-25T15:02:25.373Z,85
2019-06-25T15:03:23.973Z,85
2019-06-25T15:04:22.545Z,85
2019-06-25T15:05:21.163Z,85
2019-06-25T15:06:19.915Z,85
2019-06-25T15:07:18.433Z,85
2019-06-25T15:08:30.062Z,85
2019-06-25T15:09:15.615Z,85
2019-06-25T15:10:14.282Z,85
2019-06-25T15:11:12.880Z,80
2019-06-25T15:12:11.545Z,80
2019-06-25T15:13:10.156Z,80
2019-06-25T15:14:08.697Z,80
2019-06-25T15:15:07.920Z,80
2019-06-25T15:16:05.938Z,85
2019-06-25T15:17:04.486Z,85
2019-06-25T15:18:03.164Z,85
2019-06-25T15:19:01.686Z,85
2019-06-25T15:20:00.195Z,85
2019-06-25T15:20:58.714Z,85
2019-06-25T15:21:57.302Z,85
2019-06-25T15:22:55.966Z,85
2019-06-25T15:23:54.626Z,85
2019-06-25T15:24:53.319Z,85
2019-06-25T15:25:51.925Z,85
2019-06-25T15:26:50.537Z,85
2019-06-25T15:27:49.193Z,85
2019-06-25T15:28:47.722Z,85
2019-06-25T15:29:46.266Z,85
2019-06-25T15:30:44.794Z,85
2019-06-25T15:31:43.351Z,85
2019-06-25T15:32:41.943Z,80
2019-06-25T15:33:40.504Z,80
2019-06-25T15:34:39.048Z,80
2019-06-25T15:35:37.583Z,80
2019-06-25T15:36:36.127Z,80
2019-06-25T15:37:34.665Z,80
2019-06-25T15:38:46.049Z,80
2019-06-25T15:39:32.065Z,80
2019-06-25T15:40:31.310Z,80
2019-06-25T15:41:30.052Z,75
2019-06-25T15:42:28.586Z,75
2019-06-25T15:43:30.043Z,70
2019-06-25T15:44:26.042Z,70
2019-06-25T15:45:24.611Z,70
2019-06-25T15:46:23.516Z,70
2019-06-25T15:47:22.158Z,75
2019-06-25T15:48:20.811Z,75
2019-06-25T15:49:19.637Z,75
2019-06-25T15:50:18.221Z,75
2019-06-25T15:51:16.831Z,75
2019-06-25T15:52:15.543Z,75
2019-06-25T15:53:14.121Z,75
2019-06-25T15:54:12.658Z,75
2019-06-25T15:55:11.424Z,75
2019-06-25T15:56:10.067Z,75
2019-06-25T15:57:08.769Z,75
2019-06-25T15:58:07.334Z,75
2019-06-25T15:59:05.865Z,70
2019-06-25T16:00:04.415Z,70
2019-06-25T16:01:02.953Z,75
2019-06-25T16:02:01.498Z,75
2019-06-25T16:03:00.032Z,75
2019-06-25T16:03:58.591Z,75
2019-06-25T16:04:57.253Z,75
2019-06-25T16:05:56.108Z,80
2019-06-25T16:06:54.819Z,70
2019-06-25T16:07:53.343Z,70
2019-06-25T16:10:52.544Z,70
2019-06-25T16:11:51.150Z,70
2019-06-25T16:12:49.692Z,70
2019-06-25T16:13:48.384Z,70
2019-06-25T16:14:46.964Z,70
2019-06-25T16:15:45.535Z,70
2019-06-25T16:16:44.233Z,70
2019-06-25T16:17:42.758Z,75
2019-06-25T16:18:41.390Z,75
2019-06-25T16:19:40.023Z,75
2019-06-25T16:20:38.575Z,75
2019-06-25T16:21:37.161Z,80
2019-06-25T16:22:35.804Z,80
2019-06-25T16:23:34.350Z,80
2019-06-25T16:24:33.008Z,80
2019-06-25T16:25:31.684Z,80
2019-06-25T16:26:30.213Z,80
2019-06-25T16:27:28.755Z,80
2019-06-25T16:28:27.341Z,80
2019-06-25T16:29:25.936Z,80
2019-06-25T16:30:24.539Z,75
2019-06-25T16:31:26.379Z,75
2019-06-25T16:32:21.826Z,75
2019-06-25T16:33:20.368Z,75
2019-06-25T16:34:18.866Z,75
2019-06-25T16:35:17.441Z,75
2019-06-25T16:36:16.128Z,75
2019-06-25T16:37:14.897Z,70
2019-06-25T16:38:13.423Z,70
2019-06-25T16:39:18.872Z,70
2019-06-25T16:40:10.491Z,70
2019-06-25T16:41:09.058Z,70
2019-06-25T16:42:07.831Z,70
2019-06-25T16:43:06.354Z,70
2019-06-25T16:44:04.920Z,70
2019-06-25T16:45:03.876Z,70
2019-06-25T16:46:02.406Z,75
2019-06-25T16:47:00.931Z,75
2019-06-25T16:47:59.539Z,75
2019-06-25T16:48:58.083Z,75
2019-06-25T16:49:56.637Z,80
2019-06-25T16:50:55.183Z,80
2019-06-25T16:51:53.821Z,80
2019-06-25T16:52:52.332Z,80
2019-06-25T16:53:50.971Z,75
2019-06-25T16:54:49.604Z,80
2019-06-25T16:55:48.198Z,80
2019-06-25T16:56:46.722Z,80
2019-06-25T16:57:45.357Z,80
2019-06-25T16:58:44.074Z,80
2019-06-25T16:59:42.618Z,80
2019-06-25T17:00:41.237Z,80
2019-06-25T17:01:39.803Z,80
2019-06-25T17:02:52.717Z,80
2019-06-25T17:03:36.884Z,80
2019-06-25T17:04:35.477Z,80
2019-06-25T17:05:36.677Z,80
2019-06-25T17:06:32.554Z,80
2019-06-25T17:07:31.197Z,80
2019-06-25T17:08:29.783Z,80
2019-06-25T17:09:34.755Z,80
2019-06-25T17:10:27.019Z,80
2019-06-25T17:11:25.875Z,85
2019-06-25T17:12:24.447Z,85
2019-06-25T17:13:22.993Z,85
2019-06-25T17:14:21.526Z,85
2019-06-25T17:15:20.066Z,85
2019-06-25T17:16:23.319Z,85
2019-06-25T17:17:17.474Z,85
2019-06-25T17:18:16.132Z,85
2019-06-25T17:19:16.430Z,90
2019-06-25T17:20:13.306Z,90
2019-06-25T17:21:11.872Z,90
2019-06-25T17:22:10.421Z,90
2019-06-25T17:23:08.992Z,90
2019-06-25T17:24:07.660Z,90
2019-06-25T17:25:06.090Z,90
2019-06-25T17:26:04.638Z,90
2019-06-25T17:27:03.226Z,90
2019-06-25T17:29:43.807Z,90
2019-06-25T17:30:43.512Z,85
2019-06-25T17:31:40.901Z,85
2019-06-25T17:32:39.687Z,85
2019-06-25T17:33:38.264Z,85
2019-06-25T17:34:36.822Z,80
2019-06-25T17:35:35.380Z,80
2019-06-25T17:36:33.921Z,75
2019-06-25T17:37:32.435Z,75
2019-06-25T17:38:31.136Z,75
2019-06-25T17:39:29.937Z,75
2019-06-25T17:40:28.434Z,70
2019-06-25T17:41:27.017Z,70
2019-06-25T17:42:25.772Z,70
2019-06-25T17:43:24.332Z,65
2019-06-25T17:44:22.880Z,65
2019-06-25T17:45:21.425Z,65
2019-06-25T17:46:20.047Z,15
2019-06-25T17:47:18.676Z,65
2019-06-25T17:48:17.271Z,65
2019-06-25T17:49:15.881Z,65
2019-06-25T17:50:14.468Z,65
2019-06-25T17:51:13.195Z,65
2019-06-25T17:52:12.046Z,60
2019-06-25T17:53:10.574Z,60
2019-06-25T17:54:09.160Z,55
2019-06-25T17:55:07.701Z,55
2019-06-25T17:56:06.385Z,55
2019-06-25T17:57:05.033Z,55
2019-06-25T17:58:03.768Z,55
2019-06-25T17:59:02.380Z,55
2019-06-25T18:00:00.994Z,50
2019-06-25T18:00:59.539Z,50
2019-06-25T18:01:58.128Z,50
2019-06-25T18:02:56.648Z,50
2019-06-25T18:03:55.197Z,45
2019-06-25T18:04:53.728Z,45
2019-06-25T18:05:52.263Z,45
2019-06-25T18:06:50.791Z,45
2019-06-25T18:07:49.356Z,40
2019-06-25T18:08:47.924Z,40
2019-06-25T18:09:46.497Z,40
2019-06-25T18:10:45.190Z,40
2019-06-25T18:11:43.838Z,40
2019-06-25T18:12:42.403Z,40
2019-06-25T18:13:40.915Z,40
2019-06-25T18:14:39.571Z,40
2019-06-25T18:15:38.227Z,40
2019-06-25T18:16:36.778Z,40
2019-06-25T18:17:35.485Z,40
2019-06-25T18:18:34.066Z,40
2019-06-25T18:19:32.634Z,40
2019-06-25T18:20:31.149Z,40
2019-06-25T18:21:29.767Z,40
2019-06-25T18:22:28.306Z,40
2019-06-25T18:23:26.856Z,40
2019-06-25T18:24:25.504Z,40
2019-06-25T18:25:24.143Z,40
2019-06-25T18:26:22.672Z,35
2019-06-25T18:27:21.327Z,35
2019-06-25T18:28:20.083Z,35
2019-06-25T18:29:18.679Z,35
2019-06-25T18:30:17.182Z,35
2019-06-25T18:31:15.701Z,35
2019-06-25T18:32:14.265Z,35
2019-06-25T18:33:12.789Z,30
2019-06-25T18:34:11.362Z,30
2019-06-25T18:35:09.926Z,30
2019-06-25T18:36:08.516Z,30
2019-06-25T18:37:07.165Z,30
2019-06-25T18:38:05.882Z,30
2019-06-25T18:39:04.408Z,30
2019-06-25T18:40:02.945Z,30
2019-06-25T18:41:01.592Z,25
2019-06-25T18:42:00.244Z,25
2019-06-25T18:42:58.841Z,25
2019-06-25T18:43:57.410Z,25
2019-06-25T18:45:04.123Z,25
2019-06-25T18:45:54.562Z,25
2019-06-25T18:46:53.057Z,25
2019-06-25T18:47:51.589Z,20
2019-06-25T18:48:50.153Z,20
2019-06-25T18:49:48.716Z,20
2019-06-25T18:50:47.388Z,20
2019-06-25T18:51:45.952Z,20
2019-06-25T18:52:44.472Z,20
2019-06-25T18:53:43.033Z,15
2019-06-25T18:54:41.681Z,15
2019-06-25T18:55:40.373Z,15
2019-06-25T18:56:38.955Z,15
2019-06-25T18:57:37.487Z,15
2019-06-25T18:58:36.150Z,15
2019-06-25T18:59:34.693Z,15
2019-06-25T19:00:33.229Z,5
2019-06-25T19:01:31.788Z,15
2019-06-25T19:02:30.318Z,15
2019-06-25T19:03:28.965Z,10
2019-06-25T19:04:27.483Z,10
2019-06-25T19:05:25.937Z,10
2019-06-25T19:06:24.460Z,10
2019-06-25T19:07:23.005Z,10
2019-06-25T19:08:21.674Z,10
2019-06-25T19:09:21.121Z,10
2019-06-25T19:10:19.981Z,10
2019-06-25T19:11:18.516Z,10
2019-06-25T19:12:17.105Z,10
2019-06-25T19:13:15.795Z,5
2019-06-25T19:14:14.352Z,5
2019-06-25T19:15:12.918Z,5
2019-06-25T19:16:11.655Z,5
2019-06-25T19:17:10.252Z,5
2019-06-25T19:18:08.839Z,5
2019-06-25T19:20:49.185Z,5
2019-06-25T19:21:47.929Z,5
2019-06-25T19:22:46.527Z,5
2019-06-25T19:23:45.218Z,5
2019-06-25T19:24:43.895Z,5
2019-06-25T19:25:42.485Z,5
2019-06-25T19:26:41.164Z,5
2019-06-25T19:29:21.698Z,0
2019-06-25T19:30:20.240Z,0
2019-06-25T19:31:18.779Z,0
2019-06-25T19:32:17.665Z,0
2019-06-25T19:33:16.347Z,0
2019-06-25T19:34:14.891Z,0
2019-06-25T19:35:13.510Z,0
2019-06-25T19:36:12.040Z,0
2019-06-25T19:37:10.628Z,0
2019-06-25T19:38:09.194Z,0
2019-06-25T19:39:07.768Z,0
2019-06-25T19:40:06.312Z,0
2019-06-25T19:41:04.888Z,0
2019-06-25T19:42:03.778Z,0
2019-06-25T19:43:02.354Z,0
2019-06-25T19:44:00.943Z,0
2019-06-25T19:44:59.712Z,0
2019-06-25T19:45:58.228Z,0
2019-06-25T19:46:56.835Z,0
2019-06-25T19:47:55.338Z,0
2019-06-25T19:48:53.935Z,0
2019-06-25T19:49:52.604Z,0
2019-06-25T19:50:51.129Z,0
2019-06-25T19:51:49.938Z,0
2019-06-25T19:52:48.617Z,0
2019-06-25T19:53:47.255Z,0
2019-06-25T19:54:45.930Z,0
2019-06-25T19:55:44.508Z,0
2019-06-25T19:56:43.045Z,0
2019-06-25T19:57:41.770Z,0
2019-06-25T19:58:40.324Z,0
2019-06-25T19:59:39.241Z,0
2019-06-25T20:00:37.881Z,0
2019-06-25T20:01:36.468Z,0
2019-06-25T20:02:35.004Z,0
2019-06-25T20:03:33.560Z,0
2019-06-25T20:04:32.123Z,0
2019-06-25T20:05:30.725Z,0
2019-06-25T20:06:29.395Z,0
2019-06-25T20:07:28.037Z,0
2019-06-25T20:08:26.565Z,0
2019-06-25T20:11:11.859Z,0
2019-06-25T20:12:00.474Z,0
2019-06-25T20:12:59.089Z,0
2019-06-25T20:13:57.744Z,0
2019-06-25T20:14:56.354Z,0
2019-06-25T20:15:54.926Z,0
2019-06-25T20:16:53.491Z,0
2019-06-25T20:17:52.028Z,0
2019-06-25T20:18:50.596Z,0
2019-06-25T20:19:49.231Z,0
2019-06-25T20:20:48.574Z,0
2019-06-25T20:21:47.153Z,0
2019-06-25T20:22:45.945Z,0
2019-06-25T20:23:44.539Z,0
2019-06-25T20:24:43.096Z,0
2019-06-25T20:25:41.831Z,0
2019-06-25T20:26:40.431Z,0
2019-06-25T20:27:39.160Z,0
2019-06-25T20:31:22.292Z,0
2019-06-25T20:32:20.848Z,0
2019-06-25T20:33:19.419Z,0
2019-06-25T20:34:17.969Z,0
2019-06-25T20:35:16.579Z,0
2019-06-25T20:36:15.219Z,0
2019-06-25T20:37:13.986Z,0
2019-06-25T20:38:12.614Z,0
2019-06-25T20:39:11.272Z,0
2019-06-25T20:40:09.903Z,0
2019-06-25T20:41:08.434Z,0
2019-06-25T20:42:07.012Z,0
2019-06-25T20:43:05.545Z,0
2019-06-25T20:44:04.171Z,0
2019-06-25T20:45:02.734Z,0
2019-06-25T20:46:01.692Z,0
2019-06-25T20:47:00.320Z,0
2019-06-25T20:47:58.849Z,0
2019-06-25T20:48:59.474Z,0
2019-06-25T20:49:56.142Z,0
2019-06-25T20:50:54.835Z,0
2019-06-25T20:51:53.698Z,0
2019-06-25T20:52:52.474Z,0
2019-06-25T20:53:51.032Z,0
2019-06-25T20:54:49.651Z,0
2019-06-25T20:55:48.233Z,0
2019-06-25T20:56:46.786Z,0
2019-06-25T20:57:45.503Z,0
2019-06-25T20:58:44.171Z,0
2019-06-25T20:59:42.713Z,0
2019-06-25T21:00:41.465Z,0
2019-06-25T21:01:40.126Z,0
2019-06-25T21:02:38.650Z,0
2019-06-25T21:03:37.315Z,0
2019-06-25T21:04:35.918Z,0
2019-06-25T21:05:34.614Z,0
2019-06-25T21:06:33.186Z,0
2019-06-25T21:07:31.978Z,0
2019-06-25T21:08:30.669Z,0
2019-06-25T21:09:29.372Z,0
2019-06-25T21:10:27.885Z,0
2019-06-25T21:11:29.769Z,0
2019-06-25T21:12:24.921Z,0
2019-06-25T21:13:23.536Z,0
2019-06-25T21:14:22.045Z,0
2019-06-25T21:15:20.644Z,0
2019-06-25T21:16:19.328Z,0
2019-06-25T21:17:17.987Z,0
2019-06-25T21:18:16.544Z,0
2019-06-25T21:19:15.061Z,0
2019-06-25T21:20:13.715Z,0
2019-06-25T21:21:12.509Z,0
2019-06-25T21:22:11.037Z,0
2019-06-25T21:23:09.601Z,0
2019-06-25T21:24:08.184Z,0
2019-06-25T21:25:06.730Z,0
2019-06-25T21:26:05.350Z,0
2019-06-25T21:27:03.936Z,0
2019-06-25T21:28:02.516Z,0
2019-06-25T21:29:01.042Z,0
2019-06-25T21:29:59.847Z,0
2019-06-25T21:30:58.946Z,0
2019-06-25T21:31:56.996Z,0
2019-06-25T21:32:55.700Z,0
2019-06-25T21:33:54.234Z,0
2019-06-25T21:34:52.765Z,0
2019-06-25T21:35:51.297Z,0
2019-06-25T21:36:49.861Z,0
2019-06-25T21:37:48.436Z,0
2019-06-25T21:38:47.014Z,0
2019-06-25T21:39:45.718Z,0
2019-06-25T21:40:44.385Z,0